sensor_id;sensor_type;location;lat;lon;timestamp;P1;durP1;ratioP1;P2;durP2;ratioP2
23346;SDS011;36852;45.466;11.066;2023-02-19T00:00:06;179.12;;;85.65;;
23346;SDS011;36852;45.466;11.066;2023-02-19T00:02:36;177.20;;;83.82;;
23346;SDS011;36852;45.466;11.066;2023-02-19T00:05:05;176.15;;;82.25;;
23346;SDS011;36852;45.466;11.066;2023-02-19T00:07:34;169.28;;;82.37;;
23346;SDS011;36852;45.466;11.066;2023-02-19T00:10:03;173.47;;;81.05;;
23346;SDS011;36852;45.466;11.066;2023-02-19T00:12:31;183.40;;;85.07;;
23346;SDS011;36852;45.466;11.066;2023-02-19T00:14:59;174.53;;;80.92;;
23346;SDS011;36852;45.466;11.066;2023-02-19T00:17:29;168.62;;;82.57;;
23346;SDS011;36852;45.466;11.066;2023-02-19T00:19:57;169.55;;;81.12;;
23346;SDS011;36852;45.466;11.066;2023-02-19T00:22:25;172.25;;;80.03;;
23346;SDS011;36852;45.466;11.066;2023-02-19T00:24:53;169.32;;;76.47;;
23346;SDS011;36852;45.466;11.066;2023-02-19T00:27:22;165.15;;;78.37;;
23346;SDS011;36852;45.466;11.066;2023-02-19T00:29:51;160.05;;;77.82;;
23346;SDS011;36852;45.466;11.066;2023-02-19T00:32:20;160.70;;;75.50;;
23346;SDS011;36852;45.466;11.066;2023-02-19T00:34:48;156.95;;;75.97;;
23346;SDS011;36852;45.466;11.066;2023-02-19T00:37:15;166.60;;;78.60;;
23346;SDS011;36852;45.466;11.066;2023-02-19T00:39:43;164.80;;;78.50;;
23346;SDS011;36852;45.466;11.066;2023-02-19T00:42:11;174.57;;;79.25;;
23346;SDS011;36852;45.466;11.066;2023-02-19T00:44:39;165.60;;;80.03;;
23346;SDS011;36852;45.466;11.066;2023-02-19T00:47:07;170.65;;;83.45;;
23346;SDS011;36852;45.466;11.066;2023-02-19T00:49:37;165.90;;;80.70;;
23346;SDS011;36852;45.466;11.066;2023-02-19T00:52:05;180.93;;;87.12;;
23346;SDS011;36852;45.466;11.066;2023-02-19T00:54:36;181.78;;;88.27;;
23346;SDS011;36852;45.466;11.066;2023-02-19T00:57:06;182.12;;;88.67;;
23346;SDS011;36852;45.466;11.066;2023-02-19T00:59:35;178.38;;;85.75;;
23346;SDS011;36852;45.466;11.066;2023-02-19T01:02:03;171.15;;;83.78;;
23346;SDS011;36852;45.466;11.066;2023-02-19T01:04:31;176.97;;;85.42;;
23346;SDS011;36852;45.466;11.066;2023-02-19T01:07:00;178.47;;;84.07;;
23346;SDS011;36852;45.466;11.066;2023-02-19T01:09:29;170.45;;;82.05;;
23346;SDS011;36852;45.466;11.066;2023-02-19T01:11:57;176.12;;;82.37;;
23346;SDS011;36852;45.466;11.066;2023-02-19T01:14:26;160.80;;;82.15;;
23346;SDS011;36852;45.466;11.066;2023-02-19T01:16:54;171.25;;;80.17;;
23346;SDS011;36852;45.466;11.066;2023-02-19T01:19:23;160.67;;;79.30;;
23346;SDS011;36852;45.466;11.066;2023-02-19T01:24:25;167.85;;;78.50;;
23346;SDS011;36852;45.466;11.066;2023-02-19T01:26:53;166.15;;;79.30;;
23346;SDS011;36852;45.466;11.066;2023-02-19T01:29:24;161.77;;;78.60;;
23346;SDS011;36852;45.466;11.066;2023-02-19T01:31:53;167.22;;;80.80;;
23346;SDS011;36852;45.466;11.066;2023-02-19T01:34:21;167.00;;;79.35;;
23346;SDS011;36852;45.466;11.066;2023-02-19T01:36:50;163.60;;;78.10;;
23346;SDS011;36852;45.466;11.066;2023-02-19T01:39:17;166.73;;;81.35;;
23346;SDS011;36852;45.466;11.066;2023-02-19T01:41:45;180.00;;;84.50;;
23346;SDS011;36852;45.466;11.066;2023-02-19T01:49:36;171.30;;;82.75;;
23346;SDS011;36852;45.466;11.066;2023-02-19T01:54:39;171.53;;;81.55;;
23346;SDS011;36852;45.466;11.066;2023-02-19T01:57:11;170.00;;;82.53;;
23346;SDS011;36852;45.466;11.066;2023-02-19T01:59:40;173.02;;;82.12;;
23346;SDS011;36852;45.466;11.066;2023-02-19T02:02:13;165.97;;;80.35;;
23346;SDS011;36852;45.466;11.066;2023-02-19T02:04:42;169.02;;;79.25;;
23346;SDS011;36852;45.466;11.066;2023-02-19T02:07:10;173.35;;;81.78;;
23346;SDS011;36852;45.466;11.066;2023-02-19T02:12:41;170.60;;;80.07;;
23346;SDS011;36852;45.466;11.066;2023-02-19T02:15:08;166.50;;;79.35;;
23346;SDS011;36852;45.466;11.066;2023-02-19T02:25:51;163.20;;;79.72;;
23346;SDS011;36852;45.466;11.066;2023-02-19T02:31:39;178.25;;;81.85;;
23346;SDS011;36852;45.466;11.066;2023-02-19T02:34:23;168.95;;;80.12;;
23346;SDS011;36852;45.466;11.066;2023-02-19T02:39:38;168.52;;;80.65;;
23346;SDS011;36852;45.466;11.066;2023-02-19T02:42:12;165.50;;;79.97;;
23346;SDS011;36852;45.466;11.066;2023-02-19T02:45:14;168.40;;;78.50;;
23346;SDS011;36852;45.466;11.066;2023-02-19T02:53:52;176.22;;;84.17;;
23346;SDS011;36852;45.466;11.066;2023-02-19T02:59:27;171.13;;;81.32;;
23346;SDS011;36852;45.466;11.066;2023-02-19T03:10:40;186.43;;;83.70;;
23346;SDS011;36852;45.466;11.066;2023-02-19T03:13:25;173.53;;;84.70;;
23346;SDS011;36852;45.466;11.066;2023-02-19T03:18:57;170.75;;;78.37;;
23346;SDS011;36852;45.466;11.066;2023-02-19T03:22:08;168.43;;;80.70;;
23346;SDS011;36852;45.466;11.066;2023-02-19T03:24:29;173.43;;;78.37;;
23346;SDS011;36852;45.466;11.066;2023-02-19T03:30:11;161.10;;;78.90;;
23346;SDS011;36852;45.466;11.066;2023-02-19T03:32:45;163.45;;;78.15;;
23346;SDS011;36852;45.466;11.066;2023-02-19T03:35:19;169.85;;;80.87;;
23346;SDS011;36852;45.466;11.066;2023-02-19T03:40:23;169.35;;;83.55;;
23346;SDS011;36852;45.466;11.066;2023-02-19T03:43:33;164.47;;;78.65;;
23346;SDS011;36852;45.466;11.066;2023-02-19T03:45:55;163.32;;;78.05;;
23346;SDS011;36852;45.466;11.066;2023-02-19T03:48:34;172.07;;;80.47;;
23346;SDS011;36852;45.466;11.066;2023-02-19T03:56:51;163.92;;;78.05;;
23346;SDS011;36852;45.466;11.066;2023-02-19T04:02:12;168.37;;;79.25;;
23346;SDS011;36852;45.466;11.066;2023-02-19T04:04:44;165.00;;;80.28;;
23346;SDS011;36852;45.466;11.066;2023-02-19T04:07:14;174.12;;;81.22;;
23346;SDS011;36852;45.466;11.066;2023-02-19T04:09:43;175.95;;;81.35;;
23346;SDS011;36852;45.466;11.066;2023-02-19T04:12:16;162.77;;;78.65;;
23346;SDS011;36852;45.466;11.066;2023-02-19T04:17:25;158.40;;;78.22;;
23346;SDS011;36852;45.466;11.066;2023-02-19T04:19:55;171.60;;;80.30;;
23346;SDS011;36852;45.466;11.066;2023-02-19T04:22:26;163.57;;;79.62;;
23346;SDS011;36852;45.466;11.066;2023-02-19T04:24:56;170.00;;;82.25;;
23346;SDS011;36852;45.466;11.066;2023-02-19T04:27:25;163.15;;;76.65;;
23346;SDS011;36852;45.466;11.066;2023-02-19T04:29:57;162.53;;;77.82;;
23346;SDS011;36852;45.466;11.066;2023-02-19T04:37:38;170.15;;;78.70;;
23346;SDS011;36852;45.466;11.066;2023-02-19T04:40:06;162.80;;;80.95;;
23346;SDS011;36852;45.466;11.066;2023-02-19T04:42:39;164.80;;;79.40;;
23346;SDS011;36852;45.466;11.066;2023-02-19T04:45:07;166.82;;;78.97;;
23346;SDS011;36852;45.466;11.066;2023-02-19T04:47:35;171.55;;;81.57;;
23346;SDS011;36852;45.466;11.066;2023-02-19T04:50:03;170.95;;;84.52;;
23346;SDS011;36852;45.466;11.066;2023-02-19T04:52:31;177.02;;;82.67;;
23346;SDS011;36852;45.466;11.066;2023-02-19T04:55:03;181.75;;;85.20;;
23346;SDS011;36852;45.466;11.066;2023-02-19T04:57:31;182.40;;;85.17;;
23346;SDS011;36852;45.466;11.066;2023-02-19T05:00:01;181.97;;;85.77;;
23346;SDS011;36852;45.466;11.066;2023-02-19T05:02:29;182.50;;;88.50;;
23346;SDS011;36852;45.466;11.066;2023-02-19T05:04:57;188.78;;;90.22;;
23346;SDS011;36852;45.466;11.066;2023-02-19T05:07:25;189.28;;;89.42;;
23346;SDS011;36852;45.466;11.066;2023-02-19T05:09:54;174.15;;;84.42;;
23346;SDS011;36852;45.466;11.066;2023-02-19T05:12:22;188.55;;;86.55;;
23346;SDS011;36852;45.466;11.066;2023-02-19T05:14:51;176.30;;;84.03;;
23346;SDS011;36852;45.466;11.066;2023-02-19T05:17:18;182.45;;;86.57;;
23346;SDS011;36852;45.466;11.066;2023-02-19T05:19:47;176.00;;;86.17;;
23346;SDS011;36852;45.466;11.066;2023-02-19T05:22:14;183.07;;;87.17;;
23346;SDS011;36852;45.466;11.066;2023-02-19T05:24:43;182.05;;;89.25;;
23346;SDS011;36852;45.466;11.066;2023-02-19T05:27:11;193.62;;;90.45;;
23346;SDS011;36852;45.466;11.066;2023-02-19T05:29:39;277.00;;;133.52;;
23346;SDS011;36852;45.466;11.066;2023-02-19T05:32:07;215.92;;;100.12;;
23346;SDS011;36852;45.466;11.066;2023-02-19T05:34:39;191.35;;;88.30;;
23346;SDS011;36852;45.466;11.066;2023-02-19T05:39:54;186.75;;;89.80;;
23346;SDS011;36852;45.466;11.066;2023-02-19T05:42:23;194.97;;;90.97;;
23346;SDS011;36852;45.466;11.066;2023-02-19T05:44:51;181.95;;;86.75;;
23346;SDS011;36852;45.466;11.066;2023-02-19T05:47:19;182.07;;;89.58;;
23346;SDS011;36852;45.466;11.066;2023-02-19T05:49:48;195.68;;;89.80;;
23346;SDS011;36852;45.466;11.066;2023-02-19T05:52:19;184.57;;;88.97;;
23346;SDS011;36852;45.466;11.066;2023-02-19T05:54:47;192.53;;;91.53;;
23346;SDS011;36852;45.466;11.066;2023-02-19T05:57:15;194.15;;;88.87;;
23346;SDS011;36852;45.466;11.066;2023-02-19T05:59:43;183.27;;;86.85;;
23346;SDS011;36852;45.466;11.066;2023-02-19T06:02:11;177.45;;;86.85;;
23346;SDS011;36852;45.466;11.066;2023-02-19T06:04:39;181.85;;;86.30;;
23346;SDS011;36852;45.466;11.066;2023-02-19T06:07:07;178.35;;;87.15;;
23346;SDS011;36852;45.466;11.066;2023-02-19T06:09:38;176.72;;;85.65;;
23346;SDS011;36852;45.466;11.066;2023-02-19T06:12:06;185.65;;;89.80;;
23346;SDS011;36852;45.466;11.066;2023-02-19T06:14:34;185.10;;;88.97;;
23346;SDS011;36852;45.466;11.066;2023-02-19T06:17:05;184.07;;;87.55;;
23346;SDS011;36852;45.466;11.066;2023-02-19T06:19:33;178.42;;;86.20;;
23346;SDS011;36852;45.466;11.066;2023-02-19T06:24:49;171.60;;;85.32;;
23346;SDS011;36852;45.466;11.066;2023-02-19T06:27:17;190.47;;;87.45;;
23346;SDS011;36852;45.466;11.066;2023-02-19T06:29:45;182.12;;;87.15;;
23346;SDS011;36852;45.466;11.066;2023-02-19T06:32:13;177.65;;;84.55;;
23346;SDS011;36852;45.466;11.066;2023-02-19T06:34:41;188.95;;;89.80;;
23346;SDS011;36852;45.466;11.066;2023-02-19T06:37:09;194.87;;;90.65;;
23346;SDS011;36852;45.466;11.066;2023-02-19T06:39:37;195.92;;;88.00;;
23346;SDS011;36852;45.466;11.066;2023-02-19T06:42:06;187.95;;;87.75;;
23346;SDS011;36852;45.466;11.066;2023-02-19T06:44:36;229.78;;;109.35;;
23346;SDS011;36852;45.466;11.066;2023-02-19T06:47:04;235.08;;;107.52;;
23346;SDS011;36852;45.466;11.066;2023-02-19T06:49:32;189.60;;;90.92;;
23346;SDS011;36852;45.466;11.066;2023-02-19T06:52:03;181.15;;;87.00;;
23346;SDS011;36852;45.466;11.066;2023-02-19T06:54:31;172.28;;;84.90;;
23346;SDS011;36852;45.466;11.066;2023-02-19T06:56:59;184.97;;;85.40;;
23346;SDS011;36852;45.466;11.066;2023-02-19T06:59:27;170.72;;;84.58;;
23346;SDS011;36852;45.466;11.066;2023-02-19T07:01:55;181.67;;;83.60;;
23346;SDS011;36852;45.466;11.066;2023-02-19T07:04:24;190.75;;;91.87;;
23346;SDS011;36852;45.466;11.066;2023-02-19T07:06:52;179.72;;;89.92;;
23346;SDS011;36852;45.466;11.066;2023-02-19T07:09:20;174.47;;;85.17;;
23346;SDS011;36852;45.466;11.066;2023-02-19T07:11:49;183.82;;;88.27;;
23346;SDS011;36852;45.466;11.066;2023-02-19T07:14:18;189.93;;;89.60;;
23346;SDS011;36852;45.466;11.066;2023-02-19T07:16:47;188.62;;;89.92;;
23346;SDS011;36852;45.466;11.066;2023-02-19T07:19:16;185.20;;;88.00;;
23346;SDS011;36852;45.466;11.066;2023-02-19T07:21:44;194.02;;;88.30;;
23346;SDS011;36852;45.466;11.066;2023-02-19T07:24:12;180.55;;;88.22;;
23346;SDS011;36852;45.466;11.066;2023-02-19T07:26:40;190.25;;;89.62;;
23346;SDS011;36852;45.466;11.066;2023-02-19T07:29:09;187.22;;;90.97;;
23346;SDS011;36852;45.466;11.066;2023-02-19T07:31:37;191.85;;;93.60;;
23346;SDS011;36852;45.466;11.066;2023-02-19T07:34:06;184.48;;;90.85;;
23346;SDS011;36852;45.466;11.066;2023-02-19T07:36:35;184.97;;;91.12;;
23346;SDS011;36852;45.466;11.066;2023-02-19T07:39:03;192.50;;;94.75;;
23346;SDS011;36852;45.466;11.066;2023-02-19T07:41:31;187.25;;;91.72;;
23346;SDS011;36852;45.466;11.066;2023-02-19T07:46:47;196.93;;;90.45;;
23346;SDS011;36852;45.466;11.066;2023-02-19T07:49:15;200.30;;;93.47;;
23346;SDS011;36852;45.466;11.066;2023-02-19T07:51:45;199.35;;;93.15;;
23346;SDS011;36852;45.466;11.066;2023-02-19T07:54:13;182.62;;;89.52;;
23346;SDS011;36852;45.466;11.066;2023-02-19T07:56:44;195.50;;;94.32;;
23346;SDS011;36852;45.466;11.066;2023-02-19T07:59:12;193.55;;;93.10;;
23346;SDS011;36852;45.466;11.066;2023-02-19T08:01:42;204.78;;;97.47;;
23346;SDS011;36852;45.466;11.066;2023-02-19T08:04:29;192.82;;;92.10;;
23346;SDS011;36852;45.466;11.066;2023-02-19T08:06:57;201.90;;;96.55;;
23346;SDS011;36852;45.466;11.066;2023-02-19T08:09:25;198.93;;;96.97;;
23346;SDS011;36852;45.466;11.066;2023-02-19T08:11:53;224.65;;;108.60;;
23346;SDS011;36852;45.466;11.066;2023-02-19T08:14:40;212.45;;;99.87;;
23346;SDS011;36852;45.466;11.066;2023-02-19T08:17:08;209.75;;;100.82;;
23346;SDS011;36852;45.466;11.066;2023-02-19T08:19:37;204.93;;;97.78;;
23346;SDS011;36852;45.466;11.066;2023-02-19T08:27:32;201.90;;;99.05;;
23346;SDS011;36852;45.466;11.066;2023-02-19T08:30:01;205.03;;;96.67;;
23346;SDS011;36852;45.466;11.066;2023-02-19T08:32:36;198.87;;;98.12;;
23346;SDS011;36852;45.466;11.066;2023-02-19T08:35:04;211.83;;;98.03;;
23346;SDS011;36852;45.466;11.066;2023-02-19T08:37:32;200.95;;;99.67;;
23346;SDS011;36852;45.466;11.066;2023-02-19T08:40:04;207.57;;;103.90;;
23346;SDS011;36852;45.466;11.066;2023-02-19T08:42:32;212.78;;;103.40;;
23346;SDS011;36852;45.466;11.066;2023-02-19T08:45:04;214.65;;;103.65;;
23346;SDS011;36852;45.466;11.066;2023-02-19T08:47:33;207.62;;;102.35;;
23346;SDS011;36852;45.466;11.066;2023-02-19T08:50:03;216.23;;;101.95;;
23346;SDS011;36852;45.466;11.066;2023-02-19T08:52:33;211.92;;;100.50;;
23346;SDS011;36852;45.466;11.066;2023-02-19T08:55:07;207.65;;;101.05;;
23346;SDS011;36852;45.466;11.066;2023-02-19T08:57:36;216.67;;;102.10;;
23346;SDS011;36852;45.466;11.066;2023-02-19T09:00:05;213.57;;;99.67;;
23346;SDS011;36852;45.466;11.066;2023-02-19T09:02:38;210.13;;;98.80;;
23346;SDS011;36852;45.466;11.066;2023-02-19T09:05:06;206.32;;;95.40;;
23346;SDS011;36852;45.466;11.066;2023-02-19T09:07:34;197.43;;;95.60;;
23346;SDS011;36852;45.466;11.066;2023-02-19T09:10:03;192.18;;;97.17;;
23346;SDS011;36852;45.466;11.066;2023-02-19T09:12:32;211.47;;;98.27;;
23346;SDS011;36852;45.466;11.066;2023-02-19T09:15:00;199.50;;;95.20;;
23346;SDS011;36852;45.466;11.066;2023-02-19T09:17:29;205.87;;;98.67;;
23346;SDS011;36852;45.466;11.066;2023-02-19T09:19:57;208.90;;;99.97;;
23346;SDS011;36852;45.466;11.066;2023-02-19T09:22:28;196.30;;;97.17;;
23346;SDS011;36852;45.466;11.066;2023-02-19T09:24:55;204.20;;;99.40;;
23346;SDS011;36852;45.466;11.066;2023-02-19T09:27:33;196.05;;;94.47;;
23346;SDS011;36852;45.466;11.066;2023-02-19T09:30:01;199.12;;;95.05;;
23346;SDS011;36852;45.466;11.066;2023-02-19T09:32:30;188.62;;;92.27;;
23346;SDS011;36852;45.466;11.066;2023-02-19T09:35:01;182.10;;;88.42;;
23346;SDS011;36852;45.466;11.066;2023-02-19T09:37:28;179.72;;;88.10;;
23346;SDS011;36852;45.466;11.066;2023-02-19T09:39:59;176.18;;;83.00;;
23346;SDS011;36852;45.466;11.066;2023-02-19T09:42:27;181.43;;;86.50;;
23346;SDS011;36852;45.466;11.066;2023-02-19T09:47:58;169.43;;;80.97;;
23346;SDS011;36852;45.466;11.066;2023-02-19T09:50:28;169.95;;;81.08;;
23346;SDS011;36852;45.466;11.066;2023-02-19T09:55:45;166.00;;;81.67;;
23346;SDS011;36852;45.466;11.066;2023-02-19T09:58:18;168.22;;;80.77;;
23346;SDS011;36852;45.466;11.066;2023-02-19T10:00:53;174.18;;;80.72;;
23346;SDS011;36852;45.466;11.066;2023-02-19T10:03:25;175.87;;;82.85;;
23346;SDS011;36852;45.466;11.066;2023-02-19T10:05:58;165.10;;;79.42;;
23346;SDS011;36852;45.466;11.066;2023-02-19T10:08:30;169.35;;;81.63;;
23346;SDS011;36852;45.466;11.066;2023-02-19T10:11:00;159.40;;;79.03;;
23346;SDS011;36852;45.466;11.066;2023-02-19T10:13:31;167.50;;;79.30;;
23346;SDS011;36852;45.466;11.066;2023-02-19T10:16:08;166.57;;;82.62;;
23346;SDS011;36852;45.466;11.066;2023-02-19T10:18:40;174.05;;;80.30;;
23346;SDS011;36852;45.466;11.066;2023-02-19T10:21:11;171.57;;;80.75;;
23346;SDS011;36852;45.466;11.066;2023-02-19T10:26:29;166.20;;;78.67;;
23346;SDS011;36852;45.466;11.066;2023-02-19T10:29:01;171.70;;;82.02;;
23346;SDS011;36852;45.466;11.066;2023-02-19T10:31:32;155.65;;;77.05;;
23346;SDS011;36852;45.466;11.066;2023-02-19T10:34:00;163.05;;;79.35;;
23346;SDS011;36852;45.466;11.066;2023-02-19T10:36:35;167.15;;;81.08;;
23346;SDS011;36852;45.466;11.066;2023-02-19T10:39:21;158.70;;;79.55;;
23346;SDS011;36852;45.466;11.066;2023-02-19T10:41:50;160.00;;;79.20;;
23346;SDS011;36852;45.466;11.066;2023-02-19T10:44:21;158.00;;;79.10;;
23346;SDS011;36852;45.466;11.066;2023-02-19T10:46:56;169.17;;;83.45;;
23346;SDS011;36852;45.466;11.066;2023-02-19T10:49:33;165.10;;;80.60;;
23346;SDS011;36852;45.466;11.066;2023-02-19T10:52:12;178.05;;;86.10;;
23346;SDS011;36852;45.466;11.066;2023-02-19T10:54:40;182.40;;;90.35;;
23346;SDS011;36852;45.466;11.066;2023-02-19T10:59:51;199.62;;;96.08;;
23346;SDS011;36852;45.466;11.066;2023-02-19T11:02:25;194.13;;;93.37;;
23346;SDS011;36852;45.466;11.066;2023-02-19T11:13:12;198.62;;;91.50;;
23346;SDS011;36852;45.466;11.066;2023-02-19T11:15:38;203.20;;;93.55;;
23346;SDS011;36852;45.466;11.066;2023-02-19T11:20:46;188.55;;;88.30;;
23346;SDS011;36852;45.466;11.066;2023-02-19T11:23:18;184.95;;;86.95;;
23346;SDS011;36852;45.466;11.066;2023-02-19T11:25:48;183.47;;;87.33;;
23346;SDS011;36852;45.466;11.066;2023-02-19T11:28:21;190.97;;;90.90;;
23346;SDS011;36852;45.466;11.066;2023-02-19T11:30:50;180.87;;;84.07;;
23346;SDS011;36852;45.466;11.066;2023-02-19T11:33:20;177.60;;;87.05;;
23346;SDS011;36852;45.466;11.066;2023-02-19T11:35:57;179.18;;;84.28;;
23346;SDS011;36852;45.466;11.066;2023-02-19T11:38:43;179.20;;;83.33;;
23346;SDS011;36852;45.466;11.066;2023-02-19T11:44:05;170.55;;;84.28;;
23346;SDS011;36852;45.466;11.066;2023-02-19T12:01:37;153.78;;;78.87;;
23346;SDS011;36852;45.466;11.066;2023-02-19T12:10:30;160.95;;;79.82;;
23346;SDS011;36852;45.466;11.066;2023-02-19T12:15:55;171.57;;;83.67;;
23346;SDS011;36852;45.466;11.066;2023-02-19T12:38:13;154.18;;;76.10;;
23346;SDS011;36852;45.466;11.066;2023-02-19T12:43:23;156.02;;;78.40;;
23346;SDS011;36852;45.466;11.066;2023-02-19T12:48:41;147.22;;;75.83;;
23346;SDS011;36852;45.466;11.066;2023-02-19T12:51:28;143.87;;;76.65;;
23346;SDS011;36852;45.466;11.066;2023-02-19T12:54:03;147.30;;;77.60;;
23346;SDS011;36852;45.466;11.066;2023-02-19T12:56:35;146.20;;;75.85;;
23346;SDS011;36852;45.466;11.066;2023-02-19T12:59:17;153.78;;;79.20;;
23346;SDS011;36852;45.466;11.066;2023-02-19T13:04:48;147.53;;;77.72;;
23346;SDS011;36852;45.466;11.066;2023-02-19T13:10:35;145.72;;;75.78;;
23346;SDS011;36852;45.466;11.066;2023-02-19T13:12:47;143.47;;;75.67;;
23346;SDS011;36852;45.466;11.066;2023-02-19T13:18:06;135.82;;;74.25;;
23346;SDS011;36852;45.466;11.066;2023-02-19T13:20:39;142.05;;;76.53;;
23346;SDS011;36852;45.466;11.066;2023-02-19T13:23:14;139.57;;;75.65;;
23346;SDS011;36852;45.466;11.066;2023-02-19T13:37:17;135.78;;;72.37;;
23346;SDS011;36852;45.466;11.066;2023-02-19T13:39:52;128.10;;;70.62;;
23346;SDS011;36852;45.466;11.066;2023-02-19T13:42:25;132.97;;;73.75;;
23346;SDS011;36852;45.466;11.066;2023-02-19T13:44:56;136.03;;;71.97;;
23346;SDS011;36852;45.466;11.066;2023-02-19T13:47:44;128.38;;;71.02;;
23346;SDS011;36852;45.466;11.066;2023-02-19T13:50:24;128.90;;;72.17;;
23346;SDS011;36852;45.466;11.066;2023-02-19T13:52:57;127.78;;;72.97;;
23346;SDS011;36852;45.466;11.066;2023-02-19T13:58:33;133.45;;;73.22;;
23346;SDS011;36852;45.466;11.066;2023-02-19T14:03:54;140.60;;;73.52;;
23346;SDS011;36852;45.466;11.066;2023-02-19T14:07:18;136.52;;;74.90;;
23346;SDS011;36852;45.466;11.066;2023-02-19T14:10:04;136.80;;;75.22;;
23346;SDS011;36852;45.466;11.066;2023-02-19T14:27:49;141.22;;;76.07;;
23346;SDS011;36852;45.466;11.066;2023-02-19T14:30:19;133.03;;;74.95;;
23346;SDS011;36852;45.466;11.066;2023-02-19T14:32:50;133.43;;;75.90;;
23346;SDS011;36852;45.466;11.066;2023-02-19T14:35:23;138.18;;;77.27;;
23346;SDS011;36852;45.466;11.066;2023-02-19T14:38:01;138.55;;;74.92;;
23346;SDS011;36852;45.466;11.066;2023-02-19T14:40:32;136.03;;;77.60;;
23346;SDS011;36852;45.466;11.066;2023-02-19T14:43:04;132.52;;;74.58;;
23346;SDS011;36852;45.466;11.066;2023-02-19T14:45:36;133.03;;;77.40;;
23346;SDS011;36852;45.466;11.066;2023-02-19T14:48:05;139.30;;;76.45;;
23346;SDS011;36852;45.466;11.066;2023-02-19T14:50:41;142.18;;;78.80;;
23346;SDS011;36852;45.466;11.066;2023-02-19T14:53:12;133.18;;;76.65;;
23346;SDS011;36852;45.466;11.066;2023-02-19T14:55:42;127.67;;;74.80;;
23346;SDS011;36852;45.466;11.066;2023-02-19T14:58:14;126.80;;;72.75;;
23346;SDS011;36852;45.466;11.066;2023-02-19T15:00:51;141.37;;;78.47;;
23346;SDS011;36852;45.466;11.066;2023-02-19T15:06:11;136.77;;;79.55;;
23346;SDS011;36852;45.466;11.066;2023-02-19T15:08:47;139.45;;;80.75;;
23346;SDS011;36852;45.466;11.066;2023-02-19T15:11:21;131.12;;;76.53;;
23346;SDS011;36852;45.466;11.066;2023-02-19T15:13:53;135.25;;;77.25;;
23346;SDS011;36852;45.466;11.066;2023-02-19T15:16:26;136.45;;;78.85;;
23346;SDS011;36852;45.466;11.066;2023-02-19T15:18:56;135.72;;;77.42;;
23346;SDS011;36852;45.466;11.066;2023-02-19T15:21:27;139.50;;;78.57;;
23346;SDS011;36852;45.466;11.066;2023-02-19T15:24:00;140.95;;;78.60;;
23346;SDS011;36852;45.466;11.066;2023-02-19T15:26:37;143.25;;;79.45;;
23346;SDS011;36852;45.466;11.066;2023-02-19T15:29:10;136.57;;;78.00;;
23346;SDS011;36852;45.466;11.066;2023-02-19T15:34:23;140.43;;;78.47;;
23346;SDS011;36852;45.466;11.066;2023-02-19T15:37:03;141.90;;;78.20;;
23346;SDS011;36852;45.466;11.066;2023-02-19T15:39:43;135.97;;;78.07;;
23346;SDS011;36852;45.466;11.066;2023-02-19T15:42:22;141.03;;;78.78;;
23346;SDS011;36852;45.466;11.066;2023-02-19T15:44:57;142.13;;;79.70;;
23346;SDS011;36852;45.466;11.066;2023-02-19T15:50:12;129.97;;;76.90;;
23346;SDS011;36852;45.466;11.066;2023-02-19T15:52:45;134.87;;;75.67;;
23346;SDS011;36852;45.466;11.066;2023-02-19T15:58:37;136.32;;;71.92;;
23346;SDS011;36852;45.466;11.066;2023-02-19T16:01:18;132.75;;;73.57;;
23346;SDS011;36852;45.466;11.066;2023-02-19T16:03:47;141.37;;;74.35;;
23346;SDS011;36852;45.466;11.066;2023-02-19T16:06:17;137.92;;;73.45;;
23346;SDS011;36852;45.466;11.066;2023-02-19T16:08:57;135.32;;;72.25;;
23346;SDS011;36852;45.466;11.066;2023-02-19T16:14:15;133.72;;;71.85;;
23346;SDS011;36852;45.466;11.066;2023-02-19T16:16:45;141.30;;;70.90;;
23346;SDS011;36852;45.466;11.066;2023-02-19T16:19:23;156.50;;;75.37;;
23346;SDS011;36852;45.466;11.066;2023-02-19T16:21:52;150.57;;;74.12;;
23346;SDS011;36852;45.466;11.066;2023-02-19T16:24:25;147.72;;;73.92;;
23346;SDS011;36852;45.466;11.066;2023-02-19T16:27:06;149.80;;;73.22;;
23346;SDS011;36852;45.466;11.066;2023-02-19T16:29:36;147.35;;;75.50;;
23346;SDS011;36852;45.466;11.066;2023-02-19T16:32:05;147.17;;;73.60;;
23346;SDS011;36852;45.466;11.066;2023-02-19T16:45:18;155.55;;;75.05;;
23346;SDS011;36852;45.466;11.066;2023-02-19T16:47:46;157.82;;;75.10;;
23346;SDS011;36852;45.466;11.066;2023-02-19T16:50:15;162.18;;;80.20;;
23346;SDS011;36852;45.466;11.066;2023-02-19T16:52:54;170.50;;;78.72;;
23346;SDS011;36852;45.466;11.066;2023-02-19T16:55:23;164.05;;;78.57;;
23346;SDS011;36852;45.466;11.066;2023-02-19T16:57:54;168.05;;;82.62;;
23346;SDS011;36852;45.466;11.066;2023-02-19T17:00:26;158.85;;;79.25;;
23346;SDS011;36852;45.466;11.066;2023-02-19T17:02:57;159.50;;;79.53;;
23346;SDS011;36852;45.466;11.066;2023-02-19T17:05:28;172.47;;;79.62;;
23346;SDS011;36852;45.466;11.066;2023-02-19T17:07:58;167.72;;;78.75;;
23346;SDS011;36852;45.466;11.066;2023-02-19T17:10:27;167.70;;;80.80;;
23346;SDS011;36852;45.466;11.066;2023-02-19T17:12:54;178.75;;;80.70;;
23346;SDS011;36852;45.466;11.066;2023-02-19T17:15:22;173.05;;;83.52;;
23346;SDS011;36852;45.466;11.066;2023-02-19T17:17:50;170.90;;;80.50;;
23346;SDS011;36852;45.466;11.066;2023-02-19T17:20:23;170.10;;;80.77;;
23346;SDS011;36852;45.466;11.066;2023-02-19T17:22:53;168.15;;;80.65;;
23346;SDS011;36852;45.466;11.066;2023-02-19T17:25:22;172.17;;;80.83;;
23346;SDS011;36852;45.466;11.066;2023-02-19T17:27:50;170.25;;;78.97;;
23346;SDS011;36852;45.466;11.066;2023-02-19T17:30:19;162.53;;;76.45;;
23346;SDS011;36852;45.466;11.066;2023-02-19T17:35:47;178.18;;;84.55;;
23346;SDS011;36852;45.466;11.066;2023-02-19T17:41:04;166.15;;;78.65;;
23346;SDS011;36852;45.466;11.066;2023-02-19T17:43:32;159.15;;;75.52;;
23346;SDS011;36852;45.466;11.066;2023-02-19T17:46:00;149.25;;;71.37;;
23346;SDS011;36852;45.466;11.066;2023-02-19T17:48:28;154.42;;;73.15;;
23346;SDS011;36852;45.466;11.066;2023-02-19T17:50:56;152.85;;;71.55;;
23346;SDS011;36852;45.466;11.066;2023-02-19T17:53:25;153.85;;;73.60;;
23346;SDS011;36852;45.466;11.066;2023-02-19T17:55:53;152.10;;;73.65;;
23346;SDS011;36852;45.466;11.066;2023-02-19T17:58:22;156.18;;;74.30;;
23346;SDS011;36852;45.466;11.066;2023-02-19T18:00:51;152.20;;;72.55;;
23346;SDS011;36852;45.466;11.066;2023-02-19T18:03:19;152.53;;;71.85;;
23346;SDS011;36852;45.466;11.066;2023-02-19T18:05:47;154.87;;;72.08;;
23346;SDS011;36852;45.466;11.066;2023-02-19T18:08:16;150.32;;;70.35;;